createdAt,value
2022-10-07T00:01:00.036Z,13.20
2022-10-07T00:03:28.443Z,8.73
2022-10-07T00:06:11.087Z,10.40
2022-10-07T00:08:41.210Z,10.98
2022-10-07T00:11:16.923Z,14.05
2022-10-07T00:13:46.271Z,11.25
2022-10-07T00:16:17.282Z,8.90
2022-10-07T00:18:45.311Z,12.85
2022-10-07T00:21:15.025Z,14.82
2022-10-07T00:23:43.831Z,10.15
2022-10-07T00:26:14.520Z,9.65
2022-10-07T00:28:42.624Z,16.63
2022-10-07T00:31:32.232Z,11.95
2022-10-07T00:34:01.795Z,12.07
2022-10-07T00:36:31.695Z,13.38
2022-10-07T00:39:01.656Z,13.30
2022-10-07T00:41:35.854Z,10.37
2022-10-07T00:44:31.363Z,17.40
2022-10-07T00:47:00.236Z,14.75
2022-10-07T00:49:30.289Z,13.27
2022-10-07T00:51:58.191Z,13.95
2022-10-07T00:54:25.971Z,11.60
2022-10-07T00:56:53.634Z,11.15
2022-10-07T00:59:21.250Z,12.55
2022-10-07T01:01:48.999Z,12.25
2022-10-07T01:04:17.343Z,12.60
2022-10-07T01:06:45.776Z,13.77
2022-10-07T01:09:14.408Z,13.13
2022-10-07T01:11:44.957Z,14.73
2022-10-07T01:14:39.105Z,13.52
2022-10-07T01:17:32.015Z,12.02
2022-10-07T01:20:02.420Z,14.73
2022-10-07T01:23:16.707Z,12.15
2022-10-07T01:26:06.896Z,11.63
2022-10-07T01:28:38.224Z,9.38
2022-10-07T01:31:08.231Z,12.52
2022-10-07T01:33:37.151Z,11.33
2022-10-07T01:36:10.895Z,11.68
2022-10-07T01:38:42.035Z,17.55
2022-10-07T01:41:15.100Z,14.00
2022-10-07T01:43:44.927Z,12.88
2022-10-07T01:46:27.343Z,9.90
2022-10-07T01:48:56.533Z,11.07
2022-10-07T01:51:26.101Z,12.55
2022-10-07T01:54:36.017Z,15.45
2022-10-07T01:57:19.165Z,10.52
2022-10-07T02:00:06.893Z,11.00
2022-10-07T02:03:02.412Z,9.60
2022-10-07T02:05:57.917Z,10.20
2022-10-07T02:08:36.656Z,11.05
2022-10-07T02:11:21.051Z,12.90
2022-10-07T02:14:13.970Z,11.03
2022-10-07T02:17:02.544Z,9.80
2022-10-07T02:19:35.123Z,12.40
2022-10-07T02:22:04.154Z,12.95
2022-10-07T02:24:35.639Z,16.60
2022-10-07T02:27:06.681Z,12.13
2022-10-07T02:29:36.358Z,12.45
2022-10-07T02:32:07.430Z,11.15
2022-10-07T02:34:36.235Z,11.90
2022-10-07T02:37:11.628Z,16.02
2022-10-07T02:39:39.163Z,10.70
2022-10-07T02:42:15.191Z,13.15
2022-10-07T02:45:02.244Z,11.43
2022-10-07T02:47:42.757Z,11.38
2022-10-07T02:50:13.509Z,11.48
2022-10-07T02:52:42.307Z,12.00
2022-10-07T02:55:13.217Z,12.25
2022-10-07T03:23:12.339Z,13.30
2022-10-07T03:25:41.164Z,11.82
2022-10-07T03:28:09.059Z,11.93
2022-10-07T03:30:36.509Z,16.23
2022-10-07T03:33:04.580Z,13.73
2022-10-07T03:35:32.122Z,10.47
2022-10-07T03:37:59.899Z,11.52
2022-10-07T03:40:28.180Z,16.23
2022-10-07T03:42:55.869Z,12.65
2022-10-07T03:45:23.441Z,11.90
2022-10-07T03:47:51.365Z,10.23
2022-10-07T03:50:19.684Z,11.27
2022-10-07T03:52:47.117Z,23.45
2022-10-07T03:55:14.889Z,12.85
2022-10-07T03:57:58.413Z,11.82
2022-10-07T04:00:28.095Z,12.43
2022-10-07T04:02:56.261Z,10.65
2022-10-07T04:05:24.630Z,13.27
2022-10-07T04:07:52.378Z,11.82
2022-10-07T04:10:21.447Z,13.20
2022-10-07T04:12:49.671Z,11.97
2022-10-07T04:15:17.393Z,15.10
2022-10-07T04:17:47.324Z,13.57
2022-10-07T04:20:16.469Z,17.98
2022-10-07T04:22:44.206Z,13.85
2022-10-07T04:25:31.281Z,9.57
2022-10-07T04:28:00.531Z,12.48
2022-10-07T04:30:34.853Z,14.38
2022-10-07T04:33:02.938Z,10.98
2022-10-07T04:35:31.176Z,12.77
2022-10-07T04:37:58.956Z,11.00
2022-10-07T04:40:27.578Z,11.73
2022-10-07T04:43:14.245Z,12.20
2022-10-07T04:45:41.865Z,10.85
2022-10-07T04:48:10.190Z,14.55
2022-10-07T04:50:38.732Z,11.97
2022-10-07T04:53:07.728Z,13.13
2022-10-07T04:55:41.120Z,12.05
2022-10-07T04:58:09.084Z,12.73
2022-10-07T05:00:44.944Z,10.80
2022-10-07T05:03:13.720Z,11.80
2022-10-07T05:05:46.600Z,14.50
2022-10-07T05:08:15.802Z,15.13
2022-10-07T05:10:44.380Z,11.80
2022-10-07T05:13:14.133Z,11.93
2022-10-07T05:15:53.134Z,15.80
2022-10-07T05:18:22.354Z,11.15
2022-10-07T05:20:51.017Z,12.85
2022-10-07T05:23:25.785Z,15.15
2022-10-07T05:26:07.794Z,13.98
2022-10-07T05:28:36.209Z,14.10
2022-10-07T05:31:12.027Z,13.82
2022-10-07T05:33:40.218Z,13.85
2022-10-07T05:36:09.137Z,12.82
2022-10-07T05:38:37.213Z,12.45
2022-10-07T05:41:07.199Z,14.80
2022-10-07T05:43:36.588Z,17.12
2022-10-07T05:46:06.857Z,15.73
2022-10-07T05:48:39.232Z,12.50
2022-10-07T05:51:08.488Z,13.45
2022-10-07T05:53:36.277Z,18.40
2022-10-07T05:56:08.395Z,12.75
2022-10-07T05:58:36.458Z,12.07
2022-10-07T06:01:11.362Z,21.10
2022-10-07T06:03:42.281Z,14.10
2022-10-07T06:06:10.861Z,16.40
2022-10-07T06:08:38.411Z,12.85
2022-10-07T06:11:25.753Z,12.25
2022-10-07T06:13:54.585Z,14.48
2022-10-07T06:16:23.290Z,14.10
2022-10-07T06:18:53.344Z,11.83
2022-10-07T06:21:28.034Z,11.45
2022-10-07T06:23:58.455Z,11.60
2022-10-07T06:26:26.311Z,11.38
2022-10-07T06:28:54.723Z,16.60
2022-10-07T06:31:25.062Z,14.20
2022-10-07T06:33:53.567Z,14.43
2022-10-07T06:36:24.423Z,15.35
2022-10-07T06:38:54.379Z,12.35
2022-10-07T06:41:23.610Z,12.30
2022-10-07T06:43:55.861Z,13.20
2022-10-07T06:46:25.763Z,15.32
2022-10-07T06:48:55.212Z,11.52
2022-10-07T06:51:24.294Z,13.38
2022-10-07T06:53:54.245Z,16.37
2022-10-07T06:56:21.988Z,14.30
2022-10-07T06:58:52.619Z,15.25
2022-10-07T07:01:21.062Z,16.23
2022-10-07T07:03:48.632Z,16.58
2022-10-07T07:06:17.159Z,21.02
2022-10-07T07:08:45.951Z,16.50
2022-10-07T07:11:32.931Z,17.83
2022-10-07T07:14:06.084Z,17.83
2022-10-07T07:16:35.577Z,24.15
2022-10-07T07:19:06.066Z,18.05
2022-10-07T07:21:34.609Z,18.53
2022-10-07T07:24:02.712Z,23.35
2022-10-07T07:26:31.037Z,18.15
2022-10-07T07:29:01.330Z,19.45
2022-10-07T07:31:31.727Z,17.60
2022-10-07T07:34:02.166Z,18.17
2022-10-07T07:36:31.934Z,22.55
2022-10-07T07:39:02.353Z,20.50
2022-10-07T07:41:32.060Z,20.95
2022-10-07T07:44:01.899Z,19.35
2022-10-07T07:46:36.218Z,18.27
2022-10-07T07:49:04.419Z,16.58
2022-10-07T07:51:33.332Z,20.73
2022-10-07T07:54:01.073Z,17.65
2022-10-07T07:56:31.911Z,18.25
2022-10-07T07:59:00.673Z,22.00
2022-10-07T08:01:31.995Z,17.65
2022-10-07T08:04:00.868Z,17.73
2022-10-07T08:06:28.749Z,17.48
2022-10-07T08:08:59.410Z,17.27
2022-10-07T08:11:28.349Z,16.73
2022-10-07T08:13:56.443Z,20.85
2022-10-07T08:16:26.534Z,16.58
2022-10-07T08:18:56.122Z,17.95
2022-10-07T08:21:26.893Z,17.52
2022-10-07T08:23:58.221Z,17.27
2022-10-07T08:26:28.751Z,14.93
2022-10-07T08:28:57.945Z,14.30
2022-10-07T08:31:30.051Z,11.98
2022-10-07T08:34:00.242Z,18.65
2022-10-07T08:36:29.546Z,16.40
2022-10-07T08:38:57.111Z,15.45
2022-10-07T08:41:34.066Z,15.70
2022-10-07T08:44:08.163Z,17.95
2022-10-07T08:46:37.626Z,9.98
2022-10-07T08:49:17.119Z,11.23
2022-10-07T08:51:58.548Z,12.02
2022-10-07T08:54:28.323Z,13.75
2022-10-07T08:57:01.543Z,12.95
2022-10-07T08:59:34.136Z,9.85
2022-10-07T09:02:15.752Z,7.87
2022-10-07T09:05:08.237Z,9.07
2022-10-07T09:07:39.677Z,14.87
2022-10-07T09:10:10.290Z,7.32
2022-10-07T09:12:50.675Z,11.25
2022-10-07T09:15:27.459Z,13.87
2022-10-07T09:17:59.413Z,12.32
2022-10-07T09:20:31.859Z,8.55
2022-10-07T09:23:00.561Z,10.57
2022-10-07T09:25:29.625Z,10.18
2022-10-07T09:27:57.841Z,7.10
2022-10-07T09:30:27.970Z,9.20
2022-10-07T09:32:55.794Z,12.93
2022-10-07T09:35:26.117Z,8.65
2022-10-07T09:38:08.220Z,8.13
2022-10-07T09:41:00.576Z,9.53
2022-10-07T09:43:29.798Z,10.90
2022-10-07T09:45:58.086Z,8.10
2022-10-07T09:48:28.381Z,7.68
2022-10-07T09:51:13.825Z,8.85
2022-10-07T09:53:55.257Z,8.13
2022-10-07T09:56:43.775Z,12.00
2022-10-07T09:59:30.825Z,12.88
2022-10-07T10:02:04.627Z,12.15
2022-10-07T10:04:35.624Z,8.18
2022-10-07T10:07:20.628Z,9.33
2022-10-07T10:10:03.346Z,11.12
2022-10-07T10:12:36.225Z,11.40
2022-10-07T10:15:23.881Z,8.52
2022-10-07T10:17:51.713Z,8.68
2022-10-07T10:20:29.333Z,10.17
2022-10-07T10:22:57.440Z,8.57
2022-10-07T10:25:51.448Z,7.55
2022-10-07T10:28:44.904Z,9.95
2022-10-07T10:31:20.679Z,9.35
2022-10-07T10:34:24.992Z,8.37
2022-10-07T10:37:03.922Z,11.07
2022-10-07T10:40:01.900Z,7.45
2022-10-07T10:42:45.281Z,8.57
2022-10-07T10:45:42.495Z,10.55
2022-10-07T10:48:13.538Z,7.23
2022-10-07T10:50:55.162Z,12.23
2022-10-07T10:53:54.731Z,9.10
2022-10-07T10:56:59.017Z,7.18
2022-10-07T10:59:55.239Z,10.98
2022-10-07T11:02:31.870Z,9.30
2022-10-07T11:05:13.958Z,11.00
2022-10-07T11:08:10.436Z,9.40
2022-10-07T11:10:51.936Z,7.93
2022-10-07T11:13:27.410Z,10.10
2022-10-07T11:16:01.720Z,8.10
2022-10-07T11:18:41.965Z,8.95
2022-10-07T11:21:15.878Z,10.05
2022-10-07T11:23:50.385Z,9.35
2022-10-07T11:26:32.443Z,8.57
2022-10-07T11:29:10.574Z,8.00
2022-10-07T11:31:42.398Z,17.00
2022-10-07T11:34:20.355Z,10.73
2022-10-07T11:37:03.284Z,8.13
2022-10-07T11:39:30.938Z,9.93
2022-10-07T11:42:07.841Z,9.23
2022-10-07T11:44:47.714Z,10.60
2022-10-07T11:47:18.158Z,9.30
2022-10-07T11:50:24.551Z,12.00
2022-10-07T11:52:55.689Z,7.12
2022-10-07T11:55:26.709Z,7.77
2022-10-07T11:57:56.945Z,9.80
2022-10-07T12:00:25.558Z,12.45
2022-10-07T12:02:57.659Z,8.43
2022-10-07T12:05:34.237Z,7.68
2022-10-07T12:08:23.898Z,9.33
2022-10-07T12:10:56.267Z,10.48
2022-10-07T12:13:23.924Z,7.03
2022-10-07T12:15:51.402Z,6.50
2022-10-07T12:18:26.176Z,8.02
2022-10-07T12:20:53.848Z,6.27
2022-10-07T12:23:25.765Z,10.82
2022-10-07T12:25:56.192Z,6.47
2022-10-07T12:28:36.574Z,6.78
2022-10-07T12:31:16.784Z,6.03
2022-10-07T12:33:44.542Z,11.27
2022-10-07T12:36:31.390Z,9.65
2022-10-07T12:38:59.500Z,8.55
2022-10-07T12:41:30.171Z,7.10
2022-10-07T12:44:07.022Z,8.32
2022-10-07T12:46:43.025Z,7.23
2022-10-07T12:49:16.548Z,7.43
2022-10-07T12:51:44.671Z,19.33
2022-10-07T12:54:17.774Z,9.50
2022-10-07T12:56:46.129Z,6.82
2022-10-07T12:59:52.080Z,7.97
2022-10-07T13:02:53.764Z,7.03
2022-10-07T13:05:48.880Z,6.15
2022-10-07T13:08:34.786Z,7.90
2022-10-07T13:11:43.171Z,11.18
2022-10-07T13:14:19.575Z,10.60
2022-10-07T13:16:55.272Z,9.48
2022-10-07T13:19:50.501Z,10.40
2022-10-07T13:22:18.982Z,7.07
2022-10-07T13:24:54.008Z,8.05
2022-10-07T13:27:26.851Z,6.13
2022-10-07T13:29:56.300Z,7.25
2022-10-07T13:32:30.195Z,7.55
2022-10-07T13:34:59.094Z,7.75
2022-10-07T13:37:33.851Z,8.90
2022-10-07T13:40:35.441Z,13.03
2022-10-07T13:43:08.807Z,11.50
2022-10-07T13:45:45.125Z,7.00
2022-10-07T13:48:16.076Z,7.62
2022-10-07T13:50:44.373Z,6.53
2022-10-07T13:53:21.860Z,6.83
2022-10-07T13:55:49.651Z,6.05
2022-10-07T13:58:18.539Z,6.65
2022-10-07T14:00:47.457Z,8.00
2022-10-07T14:03:17.033Z,8.48
2022-10-07T14:06:02.257Z,10.80
2022-10-07T14:08:31.097Z,9.52
2022-10-07T14:10:58.539Z,7.47
2022-10-07T14:13:28.953Z,7.68
2022-10-07T14:15:57.704Z,7.68
2022-10-07T14:18:27.606Z,12.07
2022-10-07T14:20:57.593Z,7.22
2022-10-07T14:23:34.182Z,10.40
2022-10-07T14:26:04.231Z,10.68
2022-10-07T14:28:34.308Z,10.48
2022-10-07T14:31:23.738Z,7.03
2022-10-07T14:34:17.351Z,7.97
2022-10-07T14:37:26.173Z,12.63
2022-10-07T14:39:56.155Z,10.10
2022-10-07T14:42:28.876Z,8.13
2022-10-07T14:44:57.160Z,6.90
2022-10-07T14:47:28.023Z,8.50
2022-10-07T14:49:56.887Z,8.10
2022-10-07T14:52:31.609Z,8.18
2022-10-07T14:55:03.169Z,9.95
2022-10-07T14:57:31.152Z,8.67
2022-10-07T14:59:58.970Z,10.98
2022-10-07T15:02:26.548Z,9.63
2022-10-07T15:04:54.107Z,10.40
2022-10-07T15:07:21.912Z,7.07
2022-10-07T15:09:50.655Z,9.57
2022-10-07T15:12:18.005Z,12.88
2022-10-07T15:14:45.711Z,8.40
2022-10-07T15:17:14.333Z,9.98
2022-10-07T15:19:41.884Z,7.85
2022-10-07T15:22:09.546Z,7.37
2022-10-07T15:24:37.350Z,10.75
2022-10-07T15:27:06.468Z,7.03
2022-10-07T15:29:34.160Z,8.43
2022-10-07T15:32:01.669Z,9.15
2022-10-07T15:34:29.158Z,6.10
2022-10-07T15:36:56.934Z,8.57
2022-10-07T15:39:24.443Z,8.65
2022-10-07T15:41:52.060Z,9.63
2022-10-07T15:44:22.132Z,6.47
2022-10-07T15:46:53.029Z,9.97
2022-10-07T15:49:21.127Z,8.90
2022-10-07T15:51:48.609Z,9.18
2022-10-07T15:54:16.483Z,9.57
2022-10-07T15:56:45.211Z,9.98
2022-10-07T15:59:12.721Z,10.87
2022-10-07T16:01:40.190Z,8.15
2022-10-07T16:04:11.613Z,9.93
2022-10-07T16:06:39.351Z,7.53
2022-10-07T16:09:07.328Z,11.63
2022-10-07T16:11:35.012Z,7.63
2022-10-07T16:14:03.021Z,9.90
2022-10-07T16:16:33.845Z,12.52
2022-10-07T16:19:01.950Z,7.90
2022-10-07T16:21:32.111Z,8.18
2022-10-07T16:24:08.915Z,8.57
2022-10-07T16:26:37.540Z,6.87
2022-10-07T16:29:26.268Z,10.20
2022-10-07T16:31:58.372Z,7.87
2022-10-07T16:34:28.266Z,11.93
2022-10-07T16:36:56.948Z,7.30
2022-10-07T16:39:24.985Z,7.75
2022-10-07T16:41:52.664Z,9.93
2022-10-07T16:44:23.864Z,18.40
2022-10-07T16:46:56.696Z,13.07
2022-10-07T16:49:26.166Z,9.60
2022-10-07T16:51:54.328Z,10.32
2022-10-07T16:54:22.038Z,16.20
2022-10-07T16:56:52.360Z,9.93
2022-10-07T16:59:23.724Z,13.07
2022-10-07T17:01:55.583Z,11.00
2022-10-07T17:04:24.611Z,11.80
2022-10-07T17:06:53.430Z,18.95
2022-10-07T17:09:22.016Z,10.32
2022-10-07T17:11:49.644Z,11.32
2022-10-07T17:14:19.588Z,9.87
2022-10-07T17:16:49.114Z,9.25
2022-10-07T17:19:19.874Z,8.88
2022-10-07T17:21:48.409Z,11.48
2022-10-07T17:24:16.858Z,10.07
2022-10-07T17:26:45.610Z,15.43
2022-10-07T17:29:15.080Z,10.50
2022-10-07T17:31:43.512Z,9.10
2022-10-07T17:34:11.959Z,10.40
2022-10-07T17:36:39.999Z,11.12
2022-10-07T17:39:07.944Z,7.50
2022-10-07T17:41:37.417Z,7.00
2022-10-07T17:44:09.387Z,9.45
2022-10-07T17:46:39.303Z,9.73
2022-10-07T17:49:08.846Z,8.48
2022-10-07T17:51:37.379Z,10.57
2022-10-07T17:54:06.321Z,9.38
2022-10-07T17:56:36.937Z,11.35
2022-10-07T17:59:05.482Z,9.68
2022-10-07T18:01:34.441Z,9.32
2022-10-07T18:04:07.415Z,9.40
2022-10-07T18:06:37.809Z,11.30
2022-10-07T18:09:07.118Z,9.73
2022-10-07T18:11:53.273Z,12.50
2022-10-07T18:14:40.128Z,18.02
2022-10-07T18:17:09.115Z,11.67
2022-10-07T18:19:37.896Z,9.63
2022-10-07T18:22:05.360Z,8.02
2022-10-07T18:24:32.835Z,8.82
2022-10-07T18:27:02.400Z,11.48
2022-10-07T18:29:32.266Z,14.13
2022-10-07T18:32:01.074Z,9.63
2022-10-07T18:34:28.575Z,11.50
2022-10-07T18:36:57.245Z,11.07
2022-10-07T18:39:27.657Z,10.88
2022-10-07T18:41:55.633Z,10.90
2022-10-07T18:44:23.028Z,10.05
2022-10-07T18:46:50.929Z,12.30
2022-10-07T18:49:19.798Z,12.48
2022-10-07T18:51:50.313Z,8.40
2022-10-07T18:54:21.816Z,7.80
2022-10-07T18:56:50.510Z,9.32
2022-10-07T18:59:19.662Z,8.90
2022-10-07T19:01:50.525Z,9.98
2022-10-07T19:04:19.499Z,14.05
2022-10-07T19:06:47.676Z,9.13
2022-10-07T19:09:17.922Z,12.50
2022-10-07T19:11:49.160Z,10.75
2022-10-07T19:14:16.776Z,11.60
2022-10-07T19:16:46.467Z,10.02
2022-10-07T19:19:24.634Z,10.67
2022-10-07T19:21:54.135Z,12.20
2022-10-07T19:24:42.635Z,8.15
2022-10-07T19:27:10.060Z,9.43
2022-10-07T19:29:37.980Z,9.70
2022-10-07T19:32:08.601Z,9.93
2022-10-07T19:34:36.318Z,9.73
2022-10-07T19:37:04.120Z,8.43
2022-10-07T19:39:31.617Z,15.05
2022-10-07T19:41:59.238Z,8.55
2022-10-07T19:44:27.687Z,8.30
2022-10-07T19:46:55.292Z,9.25
2022-10-07T19:49:22.844Z,9.93
2022-10-07T19:51:50.549Z,8.15
2022-10-07T19:54:18.044Z,9.68
2022-10-07T19:56:46.496Z,9.97
2022-10-07T19:59:14.754Z,13.10
2022-10-07T20:01:43.896Z,13.62
2022-10-07T20:04:14.171Z,11.45
2022-10-07T20:06:42.687Z,11.40
2022-10-07T20:09:13.310Z,10.23
2022-10-07T20:11:41.026Z,10.60
2022-10-07T20:14:10.078Z,9.98
2022-10-07T20:16:39.029Z,12.18
2022-10-07T20:19:14.307Z,11.40
2022-10-07T20:21:42.088Z,13.63
2022-10-07T20:24:14.424Z,14.30
2022-10-07T20:26:45.125Z,14.00
2022-10-07T20:29:15.324Z,12.05
2022-10-07T20:31:43.433Z,15.13
2022-10-07T20:34:16.430Z,15.73
2022-10-07T20:36:44.190Z,11.90
2022-10-07T20:39:35.608Z,15.98
2022-10-07T20:42:22.134Z,14.38
2022-10-07T20:44:54.865Z,12.85
2022-10-07T20:47:23.594Z,14.53
2022-10-07T20:49:56.634Z,13.55
2022-10-07T20:52:26.221Z,13.93
2022-10-07T20:54:54.116Z,11.75
2022-10-07T20:57:24.181Z,14.02
2022-10-07T20:59:51.921Z,12.13
2022-10-07T21:02:21.254Z,15.27
2022-10-07T21:04:48.793Z,13.18
2022-10-07T21:07:17.551Z,13.32
2022-10-07T21:09:45.120Z,14.93
2022-10-07T21:12:14.884Z,11.37
2022-10-07T21:14:44.119Z,13.65
2022-10-07T21:17:12.216Z,13.32
2022-10-07T21:19:41.650Z,15.25
2022-10-07T21:22:09.519Z,15.70
2022-10-07T21:24:40.756Z,16.40
2022-10-07T21:27:08.589Z,13.85
2022-10-07T21:29:40.811Z,15.60
2022-10-07T21:32:10.262Z,11.50
2022-10-07T21:34:40.802Z,13.30
2022-10-07T21:37:08.433Z,14.57
2022-10-07T21:39:35.900Z,12.90
2022-10-07T21:42:04.090Z,16.02
2022-10-07T21:44:33.490Z,15.95
2022-10-07T21:47:01.088Z,12.52
2022-10-07T21:49:28.746Z,16.70
2022-10-07T21:51:56.243Z,14.40
2022-10-07T21:54:23.674Z,12.55
2022-10-07T21:56:51.397Z,13.43
2022-10-07T21:59:18.773Z,15.27
2022-10-07T22:01:46.234Z,13.13
2022-10-07T22:04:18.446Z,13.57
2022-10-07T22:07:05.313Z,13.48
2022-10-07T22:09:33.411Z,16.60
2022-10-07T22:12:00.877Z,13.52
2022-10-07T22:14:44.539Z,12.07
2022-10-07T22:17:14.259Z,14.77
2022-10-07T22:19:41.791Z,14.00
2022-10-07T22:22:09.206Z,13.90
2022-10-07T22:24:36.918Z,15.43
2022-10-07T22:27:04.482Z,16.63
2022-10-07T22:29:31.947Z,15.52
2022-10-07T22:31:59.718Z,14.63
2022-10-07T22:34:45.702Z,14.57
2022-10-07T22:37:13.409Z,16.67
2022-10-07T22:39:41.346Z,16.50
2022-10-07T22:42:08.765Z,13.23
2022-10-07T22:44:36.454Z,11.77
2022-10-07T22:47:03.836Z,14.90
2022-10-07T22:49:31.245Z,13.80
2022-10-07T22:51:59.922Z,14.63
2022-10-07T22:54:27.981Z,14.38
2022-10-07T22:56:55.626Z,14.43
2022-10-07T22:59:23.355Z,12.45
2022-10-07T23:01:50.796Z,14.87
2022-10-07T23:04:20.323Z,14.80
2022-10-07T23:06:48.347Z,14.02
2022-10-07T23:09:15.796Z,12.77
2022-10-07T23:11:43.225Z,13.52
2022-10-07T23:14:11.969Z,12.30
2022-10-07T23:16:39.378Z,15.57
2022-10-07T23:19:06.765Z,13.88
2022-10-07T23:21:34.843Z,13.07
2022-10-07T23:24:08.025Z,16.23
2022-10-07T23:26:36.536Z,14.23
2022-10-07T23:29:04.192Z,13.10
2022-10-07T23:31:32.736Z,13.62
2022-10-07T23:34:01.737Z,18.05
2022-10-07T23:36:29.645Z,13.73
2022-10-07T23:38:59.335Z,16.58
2022-10-07T23:41:29.119Z,16.73
2022-10-07T23:43:58.347Z,13.90
2022-10-07T23:46:26.769Z,15.98
2022-10-07T23:48:54.936Z,13.45
2022-10-07T23:51:24.171Z,18.95
2022-10-07T23:53:51.777Z,16.50
2022-10-07T23:56:19.596Z,14.68
2022-10-07T23:58:46.976Z,16.98
